Time;durP1;ratioP1;P1;durP2;ratioP2;P2;SDS_P1;SDS_P2;PMS_P1;PMS_P2;Temp;Humidity;BMP_temperature;BMP_pressure;BME280_temperature;BME280_humidity;BME280_pressure;Samples;Min_cycle;Max_cycle;Signal;HPM_P1;HPM_P2
2024/04/11 00:01:17;;;;;;;6.53;2.85;;;;;;;17.11;44.45;100254.63;5422716;26;19999;-26
2024/04/11 00:03:43;;;;;;;5.68;3.00;;;;;;;17.19;44.25;100251.59;5422204;26;20010;-26
2024/04/11 00:06:09;;;;;;;6.00;2.80;;;;;;;17.22;44.27;100252.19;5426805;26;20316;-26
2024/04/11 00:08:34;;;;;;;5.13;3.00;;;;;;;17.26;44.06;100254.16;5449098;26;19999;-26
2024/04/11 00:10:59;;;;;;;9.15;3.20;;;;;;;17.32;43.46;100247.00;5448956;26;19994;-26
2024/04/11 00:13:25;;;;;;;5.28;2.97;;;;;;;17.40;44.11;100243.94;5448910;26;19994;-26
2024/04/11 00:15:53;;;;;;;6.53;2.92;;;;;;;17.38;44.01;100251.44;5449086;26;19999;-25
2024/04/11 00:18:18;;;;;;;7.05;3.20;;;;;;;17.35;44.28;100235.78;5449218;26;20343;-25
2024/04/11 00:20:44;;;;;;;7.22;3.17;;;;;;;17.41;44.16;100240.22;5448971;26;19999;-26
2024/04/11 00:23:10;;;;;;;5.80;2.90;;;;;;;17.36;44.20;100245.47;5449438;26;20041;-27
2024/04/11 00:25:35;;;;;;;8.05;3.00;;;;;;;17.37;44.80;100239.06;5449005;26;20018;-26
2024/04/11 00:28:01;;;;;;;4.88;3.10;;;;;;;17.39;45.06;100242.34;5448818;26;19995;-26
2024/04/11 00:30:26;;;;;;;6.57;3.25;;;;;;;17.31;45.00;100242.69;5448989;26;20010;-26
2024/04/11 00:32:51;;;;;;;6.53;3.10;;;;;;;17.17;45.10;100250.19;5449227;26;19999;-26
2024/04/11 00:35:18;;;;;;;7.13;2.95;;;;;;;17.23;45.38;100254.63;5451119;26;19999;-26
2024/04/11 00:37:43;;;;;;;6.45;3.10;;;;;;;17.14;45.50;100254.16;5452390;26;20014;-25
2024/04/11 00:40:09;;;;;;;6.00;3.20;;;;;;;17.18;45.05;100252.63;5452256;26;19994;-26
2024/04/11 00:42:35;;;;;;;8.05;3.20;;;;;;;17.12;45.16;100245.50;5452338;26;19999;-25
2024/04/11 00:45:04;;;;;;;8.50;2.90;;;;;;;17.07;44.87;100245.38;5452299;26;20071;-26
2024/04/11 00:47:30;;;;;;;6.55;3.10;;;;;;;17.09;45.07;100247.84;5452157;26;19998;-26
2024/04/11 00:49:56;;;;;;;7.90;3.15;;;;;;;17.07;45.61;100245.38;5452080;26;20006;-26
2024/04/11 00:52:22;;;;;;;9.27;3.22;;;;;;;17.05;45.91;100235.94;5452182;26;20006;-26
2024/04/11 00:54:48;;;;;;;6.65;3.03;;;;;;;17.07;45.67;100247.25;5452828;26;20007;-26
2024/04/11 00:57:15;;;;;;;5.65;2.90;;;;;;;17.00;44.93;100242.84;5454072;26;20292;-26
2024/04/11 00:59:41;;;;;;;5.35;3.00;;;;;;;16.98;45.52;100247.63;5453327;26;20002;-27
2024/04/11 01:02:09;;;;;;;6.07;3.22;;;;;;;17.04;45.29;100245.03;5453608;26;19998;-26
2024/04/11 01:04:34;;;;;;;7.18;3.45;;;;;;;17.06;44.41;100246.47;5452854;26;20353;-26
2024/04/11 01:07:09;;;;;;;5.72;3.63;;;;;;;16.96;44.53;100240.81;5454080;26;20006;-26
2024/04/11 01:09:35;;;;;;;8.73;3.00;;;;;;;16.95;45.13;100247.28;5453709;26;20067;-26
2024/04/11 01:12:02;;;;;;;9.40;3.08;;;;;;;16.85;45.18;100244.31;5453144;26;20010;-25
2024/04/11 01:14:28;;;;;;;5.90;3.10;;;;;;;16.73;45.31;100245.09;5453365;26;20009;-25
2024/04/11 01:16:54;;;;;;;6.68;3.25;;;;;;;16.62;45.43;100237.88;5453206;26;20434;-25
2024/04/11 01:19:19;;;;;;;6.45;3.40;;;;;;;16.59;45.66;100236.44;5453572;26;19991;-26
2024/04/11 01:21:45;;;;;;;5.72;3.20;;;;;;;16.69;45.36;100241.25;5453470;26;19995;-26
2024/04/11 01:24:13;;;;;;;8.52;3.38;;;;;;;16.67;45.25;100239.84;5453294;26;20025;-25
2024/04/11 01:26:39;;;;;;;4.85;3.35;;;;;;;16.58;45.78;100242.88;5453752;26;19991;-26
2024/04/11 01:29:06;;;;;;;7.00;3.53;;;;;;;16.58;45.56;100239.34;5453639;26;20391;-26
2024/04/11 01:31:32;;;;;;;8.80;3.60;;;;;;;16.58;45.62;100228.59;5453053;26;19995;-26
2024/04/11 01:33:58;;;;;;;5.43;3.20;;;;;;;16.67;45.10;100240.66;5452953;26;19991;-26
2024/04/11 01:36:24;;;;;;;9.20;3.28;;;;;;;16.55;44.96;100232.59;5453168;26;20166;-25
2024/04/11 01:38:50;;;;;;;6.95;3.25;;;;;;;16.52;44.83;100227.66;5452896;26;19999;-26
2024/04/11 01:41:15;;;;;;;6.97;3.20;;;;;;;16.56;44.78;100234.22;5452724;26;19995;-26
2024/04/11 01:43:40;;;;;;;7.13;3.20;;;;;;;16.67;44.39;100226.41;5452439;26;19995;-26
2024/04/11 01:46:07;;;;;;;5.00;3.22;;;;;;;16.68;44.32;100228.03;5452515;26;20363;-26
2024/04/11 01:48:33;;;;;;;5.72;3.25;;;;;;;16.58;44.70;100225.91;5452149;26;19991;-25
2024/04/11 01:50:59;;;;;;;8.20;3.10;;;;;;;16.51;44.80;100234.09;5452299;26;20005;-25
2024/04/11 01:53:24;;;;;;;8.15;3.50;;;;;;;16.44;45.56;100238.75;5453090;26;20040;-26
2024/04/11 01:55:49;;;;;;;5.57;3.45;;;;;;;16.44;45.67;100233.38;5452704;26;20338;-25
2024/04/11 01:58:16;;;;;;;9.07;3.90;;;;;;;16.51;45.67;100241.34;5452528;26;19995;-25
2024/04/11 02:00:43;;;;;;;6.57;3.88;;;;;;;16.12;46.32;100243.56;5452855;26;19991;-25
2024/04/11 02:03:09;;;;;;;6.25;3.90;;;;;;;16.19;46.08;100247.78;5452458;26;20003;-39
2024/04/11 02:05:37;;;;;;;6.18;4.00;;;;;;;16.18;46.13;100245.31;5453207;26;20005;-38
2024/04/11 02:08:02;;;;;;;6.78;4.38;;;;;;;16.30;45.94;100240.81;5452804;26;20008;-40
2024/04/11 02:10:29;;;;;;;7.55;4.38;;;;;;;16.25;45.62;100248.72;5452441;26;19994;-39
2024/04/11 02:12:56;;;;;;;8.57;4.07;;;;;;;16.21;45.83;100234.13;5452552;26;20002;-41
2024/04/11 02:15:23;;;;;;;8.88;4.57;;;;;;;16.21;46.07;100243.00;5452448;26;19995;-41
2024/04/11 02:17:49;;;;;;;8.95;4.50;;;;;;;16.21;46.36;100248.38;5452505;26;20010;-40
2024/04/11 02:20:16;;;;;;;6.75;4.70;;;;;;;16.24;45.85;100255.16;5452476;26;20034;-39
2024/04/11 02:22:43;;;;;;;13.52;5.32;;;;;;;16.18;45.89;100253.38;5451322;26;19991;-41
2024/04/11 02:25:09;;;;;;;11.52;6.05;;;;;;;16.17;46.17;100257.13;5452212;26;19990;-40
2024/04/11 02:27:35;;;;;;;11.82;5.82;;;;;;;15.78;46.90;100251.22;5451852;26;20003;-39
2024/04/11 02:30:00;;;;;;;9.50;5.55;;;;;;;15.68;47.03;100257.06;5451135;26;19998;-40
2024/04/11 02:32:27;;;;;;;8.80;4.95;;;;;;;15.86;46.84;100261.66;5451757;26;19991;-40
2024/04/11 02:34:53;;;;;;;6.75;4.72;;;;;;;15.89;46.42;100258.50;5451429;26;19998;-40
2024/04/11 02:37:18;;;;;;;10.43;4.57;;;;;;;15.73;47.08;100261.78;5451876;26;20079;-40
2024/04/11 02:39:44;;;;;;;7.65;4.50;;;;;;;15.36;47.72;100261.75;5451741;26;20484;-40
2024/04/11 02:42:09;;;;;;;7.28;4.53;;;;;;;15.08;48.63;100259.56;5451220;26;20427;-40
2024/04/11 02:44:35;;;;;;;8.82;4.18;;;;;;;15.10;48.77;100266.34;5451829;26;20006;-40
2024/04/11 02:47:01;;;;;;;10.13;4.28;;;;;;;15.00;49.26;100268.69;5451872;26;20439;-40
2024/04/11 02:49:27;;;;;;;7.13;4.22;;;;;;;14.57;50.62;100266.78;5452243;26;19998;-39
2024/04/11 02:51:53;;;;;;;6.63;4.38;;;;;;;14.62;50.32;100264.25;5452203;26;19991;-41
2024/04/11 02:54:19;;;;;;;6.50;4.22;;;;;;;14.88;49.68;100273.16;5450950;26;20058;-41
2024/04/11 02:56:45;;;;;;;5.47;4.20;;;;;;;14.89;49.68;100269.41;5450591;26;20010;-41
2024/04/11 02:59:11;;;;;;;8.93;4.00;;;;;;;14.79;49.79;100262.72;5451214;26;20037;-40
2024/04/11 03:01:37;;;;;;;6.43;4.10;;;;;;;14.84;49.50;100267.41;5452121;26;19991;-40
2024/04/11 03:04:03;;;;;;;7.18;3.42;;;;;;;14.22;51.39;100273.38;5452291;26;19999;-41
2024/04/11 03:06:31;;;;;;;5.40;3.67;;;;;;;14.32;51.12;100277.41;5452387;26;19994;-41
2024/04/11 03:08:57;;;;;;;7.03;4.13;;;;;;;14.32;50.94;100275.56;5451933;26;20342;-41
2024/04/11 03:11:24;;;;;;;7.10;3.92;;;;;;;14.18;51.08;100280.16;5452156;26;19991;-41
2024/04/11 03:13:50;;;;;;;9.27;4.45;;;;;;;13.90;52.31;100280.50;5452510;26;20005;-41
2024/04/11 03:16:15;;;;;;;6.13;3.83;;;;;;;13.97;52.15;100283.97;5451814;26;20811;-38
2024/04/11 03:18:41;;;;;;;8.93;4.30;;;;;;;14.37;50.93;100289.09;5451575;26;20117;-40
2024/04/11 03:21:07;;;;;;;6.75;4.80;;;;;;;14.29;51.05;100292.06;5450847;26;20006;-40
2024/04/11 03:23:33;;;;;;;11.32;5.90;;;;;;;14.61;50.70;100305.50;5451186;26;20087;-40
2024/04/11 03:25:59;;;;;;;7.60;5.50;;;;;;;14.83;50.00;100304.09;5451647;26;19990;-41
2024/04/11 03:28:24;;;;;;;7.10;3.90;;;;;;;14.88;49.72;100306.13;5451541;26;19999;-40
2024/04/11 03:31:00;;;;;;;8.27;3.70;;;;;;;14.86;49.92;100305.50;5450746;26;20005;-40
2024/04/11 03:33:26;;;;;;;5.47;3.63;;;;;;;14.99;49.26;100300.06;5451135;26;20009;-40
2024/04/11 03:36:19;;;;;;;5.30;3.67;;;;;;;15.16;49.17;100305.69;5451697;26;20431;-40
2024/04/11 03:38:44;;;;;;;6.38;3.40;;;;;;;15.24;48.88;100308.06;5449203;26;20005;-40
2024/04/11 03:41:11;;;;;;;5.22;3.60;;;;;;;14.83;50.36;100306.78;5450970;26;19995;-41
2024/04/11 03:43:39;;;;;;;6.32;3.50;;;;;;;14.63;50.65;100311.44;5451031;26;20031;-40
2024/04/11 03:46:11;;;;;;;6.85;3.70;;;;;;;14.58;50.98;100314.78;5450560;26;20436;-39
2024/04/11 03:48:38;;;;;;;6.25;3.80;;;;;;;14.74;50.69;100308.09;5450939;26;20465;-39
2024/04/11 03:51:29;;;;;;;7.93;3.60;;;;;;;14.81;50.45;100318.72;5450875;26;19990;-40
2024/04/11 03:53:58;;;;;;;5.65;3.83;;;;;;;14.82;50.31;100321.19;5446273;26;19995;-40
2024/04/11 03:56:25;;;;;;;6.35;4.10;;;;;;;14.91;50.33;100329.81;5451116;26;20087;-42
2024/04/11 03:58:51;;;;;;;7.63;3.97;;;;;;;15.00;50.01;100330.34;5419356;26;20053;-40
2024/04/11 04:01:18;;;;;;;9.52;4.30;;;;;;;15.08;49.92;100331.94;5431446;26;20329;-41
2024/04/11 04:03:45;;;;;;;5.63;4.00;;;;;;;15.23;49.69;100335.09;5452129;26;20009;-41
2024/04/11 04:06:12;;;;;;;10.07;4.10;;;;;;;15.43;49.27;100343.78;5435669;26;20004;-41
2024/04/11 04:08:41;;;;;;;11.40;4.28;;;;;;;15.71;48.70;100333.63;5452939;26;20023;-40
2024/04/11 04:11:07;;;;;;;8.40;4.05;;;;;;;15.85;47.98;100347.75;5455686;26;20005;-41
2024/04/11 04:13:33;;;;;;;10.55;4.28;;;;;;;16.09;47.73;100349.53;5455593;26;19987;-41
2024/04/11 04:15:59;;;;;;;8.38;4.78;;;;;;;16.18;47.73;100353.56;5454990;26;19998;-43
2024/04/11 04:18:25;;;;;;;9.30;5.03;;;;;;;16.51;46.88;100351.50;5455366;26;20030;-40
2024/04/11 04:20:58;;;;;;;13.20;4.65;;;;;;;16.88;46.18;100348.69;5454678;26;20067;-40
2024/04/11 04:23:24;;;;;;;12.45;3.97;;;;;;;17.75;57.96;100353.44;5457341;26;19994;-41
2024/04/11 04:25:59;;;;;;;11.70;4.60;;;;;;;17.85;46.14;100352.88;5455094;26;19998;-41
2024/04/11 04:28:30;;;;;;;11.25;4.82;;;;;;;18.17;44.93;100364.84;5453146;26;20096;-41
2024/04/11 04:31:23;;;;;;;15.35;5.43;;;;;;;18.36;43.65;100362.78;5482386;26;20122;-40
2024/04/11 04:33:59;;;;;;;11.77;5.10;;;;;;;18.58;43.71;100367.50;5481308;26;20073;-40
2024/04/11 04:36:43;;;;;;;12.20;5.55;;;;;;;18.86;42.65;100360.50;5490069;26;19994;-41
2024/04/11 04:39:13;;;;;;;12.05;5.40;;;;;;;19.19;41.67;100367.81;5490445;26;20063;-40
2024/04/11 04:41:39;;;;;;;15.23;5.15;;;;;;;19.34;40.67;100368.03;5489537;26;19994;-39
2024/04/11 04:44:05;;;;;;;13.88;5.03;;;;;;;19.54;40.06;100378.31;5488631;26;19990;-40
2024/04/11 04:46:34;;;;;;;6.85;4.60;;;;;;;19.90;39.30;100378.03;5490846;26;20498;-41
2024/04/11 04:49:02;;;;;;;11.93;4.40;;;;;;;20.20;38.45;100383.00;5488000;26;20001;-40
2024/04/11 04:51:31;;;;;;;14.45;5.20;;;;;;;20.36;38.59;100380.50;5488314;26;19986;-37
2024/04/11 04:53:59;;;;;;;207.55;14.13;;;;;;;20.58;39.42;100381.28;5488313;26;20066;-42
2024/04/11 04:56:30;;;;;;;24.05;7.43;;;;;;;21.23;58.98;100376.75;5488056;26;20501;-42
2024/04/11 04:58:56;;;;;;;25.50;10.30;;;;;;;22.69;52.94;100371.81;5487438;26;19990;-39
2024/04/11 05:01:23;;;;;;;225.98;112.53;;;;;;;23.78;44.50;100375.06;5488262;26;20005;-39
2024/04/11 05:03:50;;;;;;;29.20;14.65;;;;;;;24.26;34.43;100380.06;5489946;26;20018;-37
2024/04/11 05:06:16;;;;;;;13.43;6.38;;;;;;;24.43;32.30;100373.41;5490635;26;20001;-42
2024/04/11 05:08:45;;;;;;;9.35;3.85;;;;;;;24.51;31.79;100379.13;5468535;26;20006;-37
2024/04/11 05:11:12;;;;;;;13.52;7.88;;;;;;;24.26;31.99;100384.69;5454607;26;19995;-39
2024/04/11 05:13:44;;;;;;;14.13;9.48;;;;;;;24.15;32.14;100390.16;5454361;26;20021;-40
2024/04/11 05:16:10;;;;;;;13.73;6.95;;;;;;;24.22;32.26;100392.59;5454457;26;20463;-37
2024/04/11 05:18:39;;;;;;;7.63;4.30;;;;;;;24.45;31.42;100393.81;5454355;26;20006;-37
2024/04/11 05:21:16;;;;;;;8.13;3.88;;;;;;;24.60;31.25;100392.97;5453456;26;20007;-40
2024/04/11 05:23:42;;;;;;;7.65;3.80;;;;;;;24.59;30.69;100400.28;5453875;26;20013;-40
2024/04/11 05:26:22;;;;;;;7.97;3.75;;;;;;;24.96;30.45;100396.25;5454444;26;20332;-40
2024/04/11 05:28:48;;;;;;;8.35;3.95;;;;;;;25.07;30.10;100372.47;5453939;26;20020;-41
2024/04/11 05:31:16;;;;;;;9.00;4.35;;;;;;;25.17;30.12;100407.78;5421269;26;20041;-39
2024/04/11 05:33:43;;;;;;;6.65;4.32;;;;;;;25.41;29.89;100406.25;5417936;26;19991;-38
2024/04/11 05:36:12;;;;;;;7.97;4.05;;;;;;;25.61;28.90;100416.13;5417529;26;20477;-38
2024/04/11 05:38:41;;;;;;;;;;;;;;;26.27;30.12;100412.72;5417871;26;20007;-38
2024/04/11 05:41:10;;;;;;;6.95;4.20;;;;;;;26.44;28.39;100412.19;5418348;26;19925;-38
2024/04/11 05:43:39;;;;;;;11.43;4.65;;;;;;;26.64;27.76;100418.53;5417723;26;20000;-38
2024/04/11 05:46:05;;;;;;;7.25;4.47;;;;;;;26.84;27.23;100415.50;5419928;26;20003;-39
2024/04/11 05:48:31;;;;;;;8.60;4.28;;;;;;;27.04;27.43;100416.31;5440571;26;19992;-39
2024/04/11 05:50:58;;;;;;;13.70;4.72;;;;;;;27.41;27.04;100429.09;5441759;26;20560;-39
2024/04/11 05:53:24;;;;;;;11.27;3.97;;;;;;;27.15;27.15;100431.41;5420377;26;20316;-39
2024/04/11 05:55:51;;;;;;;7.65;4.45;;;;;;;27.21;27.41;100440.34;5435072;26;20030;-38
2024/04/11 05:58:19;;;;;;;10.05;4.40;;;;;;;27.24;26.32;100437.81;5451613;26;20006;-38
2024/04/11 06:00:49;;;;;;;11.93;4.47;;;;;;;27.28;26.62;100452.53;5453258;26;20006;-38
2024/04/11 06:03:15;;;;;;;12.80;4.72;;;;;;;27.50;26.62;100449.16;5453830;26;20043;-39
2024/04/11 06:05:41;;;;;;;9.40;4.35;;;;;;;27.57;26.19;100448.78;5453298;26;20013;-40
2024/04/11 06:08:07;;;;;;;6.63;3.95;;;;;;;27.54;26.82;100452.09;5451919;26;19999;-45
2024/04/11 06:10:33;;;;;;;6.95;3.50;;;;;;;26.98;27.33;100462.00;5452022;26;19995;-44
2024/04/11 06:12:58;;;;;;;6.47;3.20;;;;;;;27.65;25.68;100463.69;5452396;26;20010;-40
2024/04/11 06:15:23;;;;;;;8.57;3.47;;;;;;;28.00;25.77;100473.16;5451073;26;20023;-40
2024/04/11 06:17:49;;;;;;;5.55;3.50;;;;;;;27.95;25.69;100478.75;5452211;26;19999;-41
2024/04/11 06:20:21;;;;;;;5.90;3.10;;;;;;;28.69;24.84;100486.03;5425036;26;19991;-40
2024/04/11 06:22:52;;;;;;;7.05;3.42;;;;;;;29.15;23.75;100481.44;5424000;26;20105;-39
2024/04/11 06:25:18;;;;;;;10.50;4.28;;;;;;;29.15;23.81;100493.25;5449228;26;19998;-41
2024/04/11 06:27:43;;;;;;;11.10;4.57;;;;;;;28.85;23.99;100486.50;5449006;26;20351;-42
2024/04/11 06:30:14;;;;;;;8.40;3.47;;;;;;;29.44;23.56;100483.78;5449106;26;20014;-41
2024/04/11 06:32:41;;;;;;;10.98;3.75;;;;;;;29.88;23.61;100495.03;5443200;26;20504;-41
2024/04/11 06:35:08;;;;;;;8.25;4.80;;;;;;;30.35;23.26;100495.41;5451557;26;19995;-40
2024/04/11 06:37:36;;;;;;;8.93;5.60;;;;;;;30.21;23.17;100492.72;5451787;26;20021;-41
2024/04/11 06:40:12;;;;;;;6.88;4.47;;;;;;;30.52;23.03;100492.72;5452416;26;19999;-37
2024/04/11 06:42:46;;;;;;;10.98;3.53;;;;;;;30.26;23.77;100486.31;5452129;26;20607;-40
2024/04/11 06:45:15;;;;;;;7.72;3.28;;;;;;;30.85;22.37;100489.53;5452463;26;20413;-40
2024/04/11 06:47:42;;;;;;;7.22;3.38;;;;;;;30.84;22.47;100492.59;5451923;26;20357;-39
2024/04/11 06:50:08;;;;;;;5.10;3.10;;;;;;;30.80;21.87;100495.16;5450250;26;20019;-39
2024/04/11 06:52:33;;;;;;;10.98;3.90;;;;;;;31.31;22.03;100496.31;5429430;26;20002;-40
2024/04/11 06:54:59;;;;;;;13.57;4.05;;;;;;;31.96;21.78;100510.13;5452858;26;19994;-42
2024/04/11 06:57:26;;;;;;;9.00;3.65;;;;;;;32.15;21.07;100504.25;5428032;26;19995;-40
2024/04/11 06:59:52;;;;;;;7.70;3.90;;;;;;;31.35;22.01;100505.53;5451833;26;20006;-43
2024/04/11 07:02:18;;;;;;;10.32;3.95;;;;;;;31.76;21.38;100506.16;5452440;26;19995;-40
2024/04/11 07:04:44;;;;;;;7.28;3.55;;;;;;;31.74;21.04;100508.44;5453011;26;19994;-38
2024/04/11 07:07:10;;;;;;;8.05;3.60;;;;;;;30.93;22.29;100512.66;5452685;26;20005;-40
2024/04/11 07:09:38;;;;;;;10.20;3.47;;;;;;;31.55;21.11;100511.53;5452634;26;20010;-39
2024/04/11 07:12:10;;;;;;;10.20;3.67;;;;;;;31.46;21.11;100514.28;5432955;26;20400;-40
2024/04/11 07:14:40;;;;;;;6.82;3.30;;;;;;;31.32;20.81;100517.19;5446754;26;20006;-39
2024/04/11 07:17:11;;;;;;;8.45;3.55;;;;;;;31.53;20.73;100511.88;5452276;26;20005;-36
2024/04/11 07:19:38;;;;;;;9.02;3.45;;;;;;;31.63;21.53;100520.91;5452249;26;20362;-40
2024/04/11 07:22:08;;;;;;;7.05;3.45;;;;;;;32.29;20.78;100524.13;5452540;26;20438;-37
2024/04/11 07:24:35;;;;;;;14.23;3.53;;;;;;;32.47;20.61;100530.31;5452602;26;20387;-40
2024/04/11 07:27:03;;;;;;;12.18;5.60;;;;;;;32.33;21.05;100530.56;5452149;26;20446;-38
2024/04/11 07:29:29;;;;;;;10.60;6.22;;;;;;;32.78;20.83;100523.69;5452399;26;20041;-39
2024/04/11 07:31:55;;;;;;;8.82;4.75;;;;;;;33.04;20.31;100529.00;5452228;26;20428;-40
2024/04/11 07:34:23;;;;;;;8.05;4.07;;;;;;;32.81;20.93;100533.25;5450175;26;20003;-39
2024/04/11 07:36:51;;;;;;;12.18;4.60;;;;;;;33.31;20.32;100533.19;5449200;26;20338;-40
2024/04/11 07:39:17;;;;;;;11.00;4.28;;;;;;;33.61;19.97;100533.06;5449168;26;20026;-41
2024/04/11 07:41:45;;;;;;;10.55;4.40;;;;;;;33.52;19.91;100537.88;5448902;26;20010;-37
2024/04/11 07:44:17;;;;;;;8.95;4.32;;;;;;;32.89;20.64;100544.19;5448563;26;20027;-43
2024/04/11 07:46:43;;;;;;;10.95;4.63;;;;;;;33.64;20.01;100537.13;5448881;26;20002;-41
2024/04/11 07:49:10;;;;;;;10.38;5.15;;;;;;;33.82;19.39;100541.31;5449497;26;19998;-44
2024/04/11 07:51:36;;;;;;;10.20;5.60;;;;;;;33.48;19.95;100534.97;5453064;26;20426;-39
2024/04/11 07:54:05;;;;;;;10.48;5.53;;;;;;;31.52;21.12;100540.47;5452099;26;19994;-41
2024/04/11 07:56:33;;;;;;;;;;;;;;;31.43;21.15;100544.34;5453652;26;20006;-41
2024/04/11 07:58:58;;;;;;;10.27;4.38;;;;;;;31.22;21.65;100539.50;5451667;26;19931;-40
2024/04/11 08:01:36;;;;;;;8.82;4.18;;;;;;;31.74;21.02;100544.19;5452089;26;20042;-38
2024/04/11 08:04:05;;;;;;;8.63;4.30;;;;;;;32.01;20.86;100548.47;5451951;26;20074;-39
2024/04/11 08:06:32;;;;;;;8.55;4.38;;;;;;;31.81;20.89;100551.94;5451411;26;20065;-40
2024/04/11 08:08:58;;;;;;;12.35;4.30;;;;;;;32.20;21.08;100550.88;5451051;26;20003;-41
2024/04/11 08:11:24;;;;;;;6.50;4.13;;;;;;;33.11;20.25;100556.09;5450864;26;19995;-40
2024/04/11 08:13:52;;;;;;;9.07;4.18;;;;;;;33.85;19.46;100539.81;5451186;26;20005;-41
2024/04/11 08:16:18;;;;;;;5.95;3.97;;;;;;;34.00;19.58;100563.19;5451896;26;20006;-39
2024/04/11 08:18:45;;;;;;;6.45;3.85;;;;;;;33.92;19.85;100556.63;5451109;26;20006;-42
2024/04/11 08:21:11;;;;;;;7.55;3.95;;;;;;;34.22;18.93;100562.00;5451928;26;20448;-40
2024/04/11 08:23:40;;;;;;;11.48;4.03;;;;;;;33.36;19.91;100562.53;5451457;26;19991;-40
2024/04/11 08:26:07;;;;;;;7.85;3.97;;;;;;;33.21;19.51;100557.63;5451253;26;20427;-40
2024/04/11 08:28:37;;;;;;;6.05;3.90;;;;;;;32.83;19.93;100550.25;5451166;26;19999;-39
2024/04/11 08:31:03;;;;;;;5.97;3.60;;;;;;;33.31;19.97;100552.47;5450781;26;19987;-40
2024/04/11 08:33:29;;;;;;;7.47;3.72;;;;;;;33.84;19.89;100561.09;5450924;26;19995;-39
2024/04/11 08:35:55;;;;;;;9.43;3.88;;;;;;;33.51;19.60;100558.34;5452329;26;20415;-39
2024/04/11 08:38:23;;;;;;;7.43;3.42;;;;;;;33.14;19.35;100558.16;5450877;26;20002;-41
2024/04/11 08:40:49;;;;;;;8.95;3.70;;;;;;;32.47;20.78;100554.31;5451370;26;19998;-42
2024/04/11 08:43:18;;;;;;;8.00;3.78;;;;;;;31.65;21.27;100554.41;5451195;26;20085;-40
2024/04/11 08:45:44;;;;;;;8.95;3.65;;;;;;;31.55;21.70;100567.34;5451257;26;20040;-39
2024/04/11 08:48:10;;;;;;;8.75;3.17;;;;;;;31.71;20.42;100564.09;5450293;26;20023;-39
2024/04/11 08:50:43;;;;;;;5.88;2.80;;;;;;;32.14;19.59;100564.00;5450864;26;19999;-38
2024/04/11 08:53:10;;;;;;;6.05;2.95;;;;;;;31.52;19.96;100559.72;5450445;26;19999;-41
2024/04/11 08:55:40;;;;;;;4.05;2.70;;;;;;;30.94;19.45;100555.50;5450263;26;20380;-37
2024/04/11 08:58:07;;;;;;;5.25;2.80;;;;;;;30.56;19.98;100556.84;5454094;26;19990;-39
2024/04/11 09:00:34;;;;;;;5.57;2.80;;;;;;;30.16;18.15;100556.03;5454070;26;20323;-39
2024/04/11 09:03:00;;;;;;;4.80;2.63;;;;;;;29.11;19.33;100551.66;5454725;26;20002;-42
2024/04/11 09:05:26;;;;;;;3.13;2.60;;;;;;;29.36;19.75;100553.03;5453969;26;19995;-41
2024/04/11 09:07:51;;;;;;;6.97;3.00;;;;;;;28.76;19.94;100556.81;5454048;26;20006;-41
2024/04/11 09:10:18;;;;;;;6.00;2.83;;;;;;;29.15;19.96;100549.94;5454439;26;20395;-41
2024/04/11 09:12:48;;;;;;;5.25;2.90;;;;;;;29.63;18.91;100543.91;5454188;26;19991;-41
2024/04/11 09:15:15;;;;;;;3.60;2.60;;;;;;;30.12;19.13;100552.25;5453557;26;19999;-42
2024/04/11 09:17:45;;;;;;;4.40;2.75;;;;;;;30.35;18.28;100547.56;5454552;26;20442;-40
2024/04/11 09:20:15;;;;;;;6.75;2.92;;;;;;;29.95;18.51;100555.72;5453457;26;20044;-42
2024/04/11 09:22:51;;;;;;;7.47;2.80;;;;;;;29.39;19.41;100557.91;5454083;26;20467;-40
2024/04/11 09:25:17;;;;;;;5.32;2.67;;;;;;;29.56;18.79;100544.31;5454285;26;20415;-40
2024/04/11 09:27:50;;;;;;;3.40;2.70;;;;;;;28.65;19.35;100558.94;5454145;26;20019;-41
2024/04/11 09:30:20;;;;;;;3.80;2.60;;;;;;;27.80;19.77;100548.16;5454040;26;19995;-40
2024/04/11 09:32:48;;;;;;;6.97;2.70;;;;;;;28.37;19.38;100550.72;5453804;26;20068;-39
2024/04/11 09:35:17;;;;;;;4.87;2.50;;;;;;;27.45;19.87;100558.53;5454132;26;20085;-42
2024/04/11 09:37:44;;;;;;;4.55;2.50;;;;;;;27.23;20.07;100555.59;5453759;26;19991;-41
2024/04/11 09:40:11;;;;;;;2.60;2.30;;;;;;;27.93;19.70;100549.34;5454104;26;20079;-41
2024/04/11 09:42:43;;;;;;;3.95;2.55;;;;;;;28.01;19.23;100553.31;5454079;26;20002;-40
2024/04/11 09:45:18;;;;;;;3.28;2.53;;;;;;;28.27;19.24;100554.47;5453829;26;19995;-42
2024/04/11 09:47:47;;;;;;;4.45;2.75;;;;;;;27.66;19.91;100550.03;5453258;26;19991;-39
2024/04/11 09:50:16;;;;;;;4.20;2.60;;;;;;;27.73;19.95;100555.13;5453420;26;20394;-40
2024/04/11 09:52:44;;;;;;;4.47;2.60;;;;;;;27.77;20.68;100547.94;5453496;26;20391;-41
2024/04/11 09:55:15;;;;;;;6.20;2.70;;;;;;;28.11;20.09;100538.63;5453623;26;20006;-41
2024/04/11 09:57:46;;;;;;;5.13;2.90;;;;;;;28.50;19.93;100540.06;5453710;26;20043;-39
2024/04/11 10:00:43;;;;;;;3.75;2.58;;;;;;;28.37;19.65;100544.41;5454052;26;20005;-38
2024/04/11 10:03:05;;;;;;;6.43;2.53;;;;;;;26.75;20.13;100544.75;5453435;26;20443;-39
2024/04/11 10:05:37;;;;;;;3.28;2.40;;;;;;;27.61;20.08;100531.78;5453726;26;20005;-40
2024/04/11 10:08:02;;;;;;;6.25;2.67;;;;;;;28.08;19.91;100542.75;5453528;26;19991;-39
2024/04/11 10:10:30;;;;;;;4.22;2.60;;;;;;;28.30;18.95;100542.09;5453800;26;20304;-45
2024/04/11 10:13:00;;;;;;;5.45;2.95;;;;;;;28.78;19.60;100538.16;5453753;26;20075;-38
2024/04/11 10:15:29;;;;;;;3.60;2.60;;;;;;;29.38;19.16;100542.59;5453833;26;20055;-41
2024/04/11 10:18:08;;;;;;;7.85;2.72;;;;;;;29.10;19.03;100550.06;5453400;26;19995;-41
2024/04/11 10:20:59;;;;;;;3.97;2.70;;;;;;;28.69;19.45;100531.75;5449952;26;20006;-38
2024/04/11 10:23:25;;;;;;;5.78;2.67;;;;;;;28.99;19.50;100524.81;5451052;26;20268;-42
2024/04/11 10:25:50;;;;;;;7.25;3.10;;;;;;;28.63;19.92;100534.59;5453014;26;20352;-39
2024/04/11 10:28:18;;;;;;;4.05;2.90;;;;;;;28.50;19.55;100537.31;5452959;26;20001;-42
2024/04/11 10:30:50;;;;;;;5.07;2.80;;;;;;;28.07;19.29;100544.69;5449986;26;20014;-41
2024/04/11 10:33:29;;;;;;;5.60;3.00;;;;;;;27.75;20.00;100533.75;5448166;26;20010;-39
2024/04/11 10:35:56;;;;;;;5.93;2.63;;;;;;;28.42;19.42;100534.16;5448133;26;19998;-40
2024/04/11 10:38:27;;;;;;;3.55;2.75;;;;;;;28.66;19.59;100544.94;5449006;26;20063;-28
2024/04/11 10:40:56;;;;;;;6.72;3.28;;;;;;;28.96;19.35;100529.00;5452300;26;19999;-27
2024/04/11 10:43:27;;;;;;;9.55;2.92;;;;;;;28.58;19.85;100536.66;5447601;26;20343;-28
2024/04/11 10:45:56;;;;;;;4.72;2.70;;;;;;;28.93;19.56;100543.28;5452691;26;20014;-27
2024/04/11 10:48:24;;;;;;;4.93;2.70;;;;;;;29.49;19.03;100526.69;5445612;26;20005;-26
2024/04/11 10:50:49;;;;;;;5.72;2.80;;;;;;;29.50;18.96;100528.31;5452626;26;20006;-28
2024/04/11 10:53:20;;;;;;;5.80;2.80;;;;;;;29.85;19.16;100526.63;5452490;26;20006;-27
2024/04/11 10:55:46;;;;;;;5.57;2.90;;;;;;;28.88;19.02;100532.44;5452066;26;19995;-28
2024/04/11 10:58:22;;;;;;;4.95;2.65;;;;;;;28.44;19.87;100533.88;5452480;26;20006;-28
2024/04/11 11:06:25;;;;;;;6.30;2.70;;;;;;;28.79;19.74;100524.16;5452478;26;19994;-29
2024/04/11 11:08:58;;;;;;;5.93;3.20;;;;;;;29.11;19.85;100527.00;5449235;26;20025;-31
2024/04/11 11:11:25;;;;;;;4.55;2.70;;;;;;;28.94;19.35;100523.00;5452790;26;20007;-29
2024/04/11 11:13:54;;;;;;;5.00;2.88;;;;;;;29.29;19.01;100520.59;5452376;26;19994;-28
2024/04/11 11:16:26;;;;;;;4.78;3.10;;;;;;;28.80;19.65;100509.31;5450383;26;20009;-30
2024/04/11 11:18:52;;;;;;;5.07;2.75;;;;;;;29.24;19.67;100512.47;5450971;26;20086;-30
2024/04/11 11:21:22;;;;;;;3.92;2.97;;;;;;;30.23;18.88;100506.16;5452215;26;20071;-28
2024/04/11 11:23:59;;;;;;;3.80;2.60;;;;;;;30.12;18.81;100524.81;5452334;26;20101;-30
2024/04/11 11:26:35;;;;;;;5.53;3.00;;;;;;;29.90;19.98;100517.47;5449565;26;20005;-27
2024/04/11 11:29:03;;;;;;;7.03;3.13;;;;;;;29.77;19.18;100519.16;5452321;26;19995;-27
2024/04/11 11:31:31;;;;;;;5.03;3.03;;;;;;;29.39;19.06;100520.34;5452132;26;20050;-29
2024/04/11 11:33:58;;;;;;;4.47;3.13;;;;;;;29.15;19.45;100508.84;5452328;26;19994;-29